DW8209 Gubbio IT current weather conditions

sailwx.info

Wind from 064 at 6 knots gusting 12

Air temperature 8.3° C
Dewpoint 4.0° C

Last reported at 2015-Apr-18 23:47 UTC.
Time now 2015-Apr-19 01:05 UTC

Location: N 43°19' E 012°34'.
View on Google Maps.

See reports from other nearby stations

  
Tides and Currents Weather Stations Pressure Air Temp Water Temp Dewpoint Dewpoint Depression Visibility Wind Speed Wind Dir Waves Ship Positions
date/time (UTC)wind fromknots sea level pressurealtimeterstation pressurevisibilityair tempwater tempwave heightnotes
2015-Apr-19 00:47 159 8.3
2015-Apr-19 00:32 203 1 gusting 3 8.3
2015-Apr-19 00:17 141 0 gusting 4 8.3
2015-Apr-19 00:02 107 3 gusting 16 8.3
2015-Apr-18 23:47 064 6 gusting 12 8.3
2015-Apr-18 23:32 036 8 gusting 14 8.3
2015-Apr-18 23:17 060 6 gusting 11 8.3
2015-Apr-18 23:02 062 5 gusting 13 8.3
2015-Apr-18 22:49 083 1 gusting 7 8.3
2015-Apr-18 22:32 084 6 gusting 13 8.3
2015-Apr-18 22:17 055 7 gusting 14 8.3
2015-Apr-18 22:02 067 6 gusting 13 8.3
2015-Apr-18 21:47 062 10 gusting 13 8.3
2015-Apr-18 21:32 084 8 gusting 14 8.9
2015-Apr-18 21:17 074 8 gusting 13 8.9
2015-Apr-18 21:04 025 6 gusting 16 8.9
2015-Apr-18 20:47 030 11 gusting 16 8.9
2015-Apr-18 20:32 060 8 gusting 14 9.4
2015-Apr-18 20:17 071 7 gusting 13 9.4
2015-Apr-18 20:02 071 9 gusting 20 10.0
2015-Apr-18 19:47 060 3 gusting 14 10.0
2015-Apr-18 19:31 042 6 gusting 11 10.6
2015-Apr-18 19:16 100 2 gusting 8 11.1
2015-Apr-18 18:46 030 2 gusting 6 11.7
2015-Apr-18 18:31 355 2 gusting 4 12.2
2015-Apr-18 18:16 082 6 gusting 9 12.8
2015-Apr-18 18:01 066 2 gusting 6 14.4
2015-Apr-18 17:46 115 1 gusting 3 15.0
2015-Apr-18 17:31 291 15.6
2015-Apr-18 17:16 310 0 gusting 2 15.6
2015-Apr-18 16:46 322 0 15.6
2015-Apr-18 16:31 321 16.1
2015-Apr-18 16:16 312 0 gusting 4 16.1
2015-Apr-18 16:01 308 1 gusting 4 16.1
2015-Apr-18 15:46 278 2 gusting 6 16.1
2015-Apr-18 15:31 287 4 gusting 6 16.1
2015-Apr-18 15:16 293 3 gusting 6 16.1
2015-Apr-18 15:01 297 4 gusting 6 16.1
2015-Apr-18 14:46 323 2 gusting 6 16.1
2015-Apr-18 14:31 293 3 gusting 7 16.7
2015-Apr-18 14:16 291 5 gusting 7 16.7
2015-Apr-18 14:01 300 4 gusting 6 16.7
2015-Apr-18 13:46 306 1 gusting 4 16.7
2015-Apr-18 13:31 287 4 gusting 6 16.1
2015-Apr-18 13:16 295 2 gusting 7 16.1
2015-Apr-18 13:01 270 5 gusting 10 16.1
2015-Apr-18 12:46 291 3 gusting 6 16.1
2015-Apr-18 12:31 293 2 gusting 6 16.1
2015-Apr-18 12:16 275 2 gusting 6 15.6
2015-Apr-18 12:01 036 1 gusting 3 15.0
2015-Apr-18 11:46 046 1 gusting 3 15.0
2015-Apr-18 11:31 032 1 gusting 6 15.0
2015-Apr-18 11:16 306 1 gusting 4 15.0
2015-Apr-18 11:01 290 3 gusting 5 15.0
2015-Apr-18 10:46 295 4 gusting 8 14.4
2015-Apr-18 10:30 275 13.9
2015-Apr-18 10:15 165 2 gusting 6 13.9
2015-Apr-18 09:45 224 6 gusting 10 13.3
2015-Apr-18 09:30 195 6 gusting 9 13.3
2015-Apr-18 09:15 217 6 gusting 10 13.3
2015-Apr-18 08:45 211 4 gusting 7 13.3
2015-Apr-18 08:30 235 3 gusting 6 13.3
2015-Apr-18 08:15 160 2 gusting 6 13.3
2015-Apr-18 08:00 117 3 gusting 6 12.2
2015-Apr-18 07:45 172 1 gusting 6 12.8
2015-Apr-18 07:30 123 2 gusting 4 11.7
2015-Apr-18 07:15 082 1 gusting 4 11.1
2015-Apr-18 07:00 084 1 gusting 3 11.1
2015-Apr-18 06:45 064 1 gusting 2 11.1
2015-Apr-18 06:30
2015-Apr-18 06:15
2015-Apr-18 06:00
2015-Apr-18 05:45
2015-Apr-18 05:30
2015-Apr-18 05:14
2015-Apr-18 04:59
2015-Apr-18 04:44
2015-Apr-18 04:29
2015-Apr-18 04:14
2015-Apr-18 03:59
2015-Apr-18 03:44
2015-Apr-18 03:29
2015-Apr-18 03:14
2015-Apr-18 02:59 230 7.2
2015-Apr-18 02:45 194 7.2
2015-Apr-18 02:30 333 6.7
2015-Apr-18 02:14 200 6.7
2015-Apr-18 01:59 277 0 gusting 0 6.7
2015-Apr-18 01:44 158 6.1
2015-Apr-18 01:30 285 6.1
2015-Apr-18 01:14 278 6.7
2015-Apr-18 00:59 312 6.7
2015-Apr-18 00:44 276 7.2
2015-Apr-18 00:29 266 0 gusting 1 7.2
2015-Apr-18 00:14 233 7.2
2015-Apr-17 23:58 141 7.8
2015-Apr-17 23:43 141 7.8
2015-Apr-17 23:28 141 8.3
2015-Apr-17 23:13 072 8.3
2015-Apr-17 22:58 071 8.9
2015-Apr-17 22:43 071 0 gusting 0 8.9
2015-Apr-17 22:28 110 8.9
2015-Apr-17 22:13 077 8.9
2015-Apr-17 21:58 330 9.4
2015-Apr-17 21:43 330 9.4
2015-Apr-17 21:28 290 9.4
2015-Apr-17 21:13 319 1 gusting 2 9.4
2015-Apr-17 20:58 264 0 gusting 0 9.4
2015-Apr-17 20:43 202 9.4
2015-Apr-17 20:28 224 9.4
2015-Apr-17 20:13 290 1 gusting 1 9.4
2015-Apr-17 19:58 308 2 gusting 3 9.4
2015-Apr-17 19:43 287 0 gusting 1 9.4
2015-Apr-17 19:28 281 0 gusting 1 10.0
2015-Apr-17 19:13 158 10.6
2015-Apr-17 18:58 158 11.1
2015-Apr-17 18:43 210 0 gusting 1 11.7
2015-Apr-17 18:28 066 0 gusting 1 11.7
2015-Apr-17 18:13 164 12.2
2015-Apr-17 17:58 229 0 gusting 0 12.2
2015-Apr-17 17:43 347 12.8
2015-Apr-17 17:28 347 12.8
2015-Apr-17 17:13 343 12.8
2015-Apr-17 16:58 343 13.3
2015-Apr-17 16:43 275 13.9
2015-Apr-17 16:28 281 0 gusting 2 13.9
2015-Apr-17 16:13 264 0 gusting 1 13.9
2015-Apr-17 15:58 011 13.3
2015-Apr-17 15:43 271 12.8
2015-Apr-17 15:28 271 12.8
2015-Apr-17 15:13 258 0 gusting 1 12.2
2015-Apr-17 14:58 228 12.2
2015-Apr-17 14:43 222 0 gusting 2 12.2
2015-Apr-17 14:28 033 11.7
2015-Apr-17 14:13 312 3 gusting 6 11.7
2015-Apr-17 13:58 297 6 gusting 12 11.7
2015-Apr-17 13:43 311 6 gusting 11 11.1
2015-Apr-17 13:27 317 3 gusting 6 11.1
2015-Apr-17 13:12 316 5 gusting 12 11.7
2015-Apr-17 12:57 325 6 gusting 12 12.8
2015-Apr-17 12:45 298 6 gusting 14 14.4
2015-Apr-17 12:27 276 9 gusting 13 16.1
2015-Apr-17 12:12 211 2 gusting 7 16.1
2015-Apr-17 11:57 219 4 gusting 6 16.7
2015-Apr-17 11:42 239 5 gusting 6 16.7
2015-Apr-17 11:27 249 5 gusting 10 16.7
2015-Apr-17 11:12 214 6 gusting 13 16.7
2015-Apr-17 10:57 236 5 gusting 9 17.2
2015-Apr-17 10:42 258 6 gusting 10 17.2
2015-Apr-17 10:27 153 6 gusting 15 17.2
2015-Apr-17 10:12 163 9 gusting 13 17.8
2015-Apr-17 09:57 153 4 gusting 17 17.2
2015-Apr-17 09:42 131 5 gusting 10 17.2
2015-Apr-17 09:27 170 4 gusting 12 16.7
2015-Apr-17 09:12 239 6 gusting 13 16.7
2015-Apr-17 08:57 183 6 gusting 14 16.1
2015-Apr-17 08:42 204 1 gusting 7 15.6
2015-Apr-17 08:27 142 4 gusting 8 15.0
2015-Apr-17 08:12 088 2 gusting 5 14.4
2015-Apr-17 07:57 063 0 gusting 4 13.9
2015-Apr-17 07:42 113 0 gusting 2 12.8
2015-Apr-17 07:27 150 11.7
2015-Apr-17 07:11 119 0 gusting 1 10.6
2015-Apr-17 06:56 068 10.6
2015-Apr-17 06:41 025 0 gusting 1 10.0
2015-Apr-17 06:26 019 9.4
2015-Apr-17 06:11 051 0 gusting 2 9.4
2015-Apr-17 05:56 224 9.4
2015-Apr-17 05:41 243 8.9
2015-Apr-17 05:26
2015-Apr-17 05:11
2015-Apr-17 04:56
2015-Apr-17 04:41
2015-Apr-17 04:26
2015-Apr-17 04:11
2015-Apr-17 03:56
2015-Apr-17 03:41
2015-Apr-17 03:26
2015-Apr-17 03:11
2015-Apr-17 02:56 100 11.7
2015-Apr-17 02:41 187 0 gusting 5 12.2
2015-Apr-17 02:25 075 1 gusting 5 11.7
2015-Apr-17 02:10 120 3 gusting 5 12.2
2015-Apr-17 01:55 101 0 gusting 4 12.2
2015-Apr-17 01:40 070 0 gusting 1 12.2
2015-Apr-17 01:25 094 0 gusting 3 12.2
2015-Apr-17 01:10 107 0 gusting 2 11.7